Time;durP1;ratioP1;P1;durP2;ratioP2;P2;SDS_P1;SDS_P2;PMS_P1;PMS_P2;Temp;Humidity;BMP_temperature;BMP_pressure;BME280_temperature;BME280_humidity;BME280_pressure;Samples;Min_cycle;Max_cycle;Signal;HPM_P1;HPM_P2
2021/11/08 00:00:28;;;;;;;106.07;42.08;;;;;;;7.93;79.78;93660.06;5075677;28;20020;-53
2021/11/08 00:02:54;;;;;;;107.07;46.83;;;;;;;7.86;79.64;93646.22;5089970;28;20016;-54
2021/11/08 00:05:21;;;;;;;82.70;41.83;;;;;;;7.74;79.74;93653.91;5090435;28;20085;-57
2021/11/08 00:07:51;;;;;;;57.42;32.33;;;;;;;7.69;80.01;93645.75;5090613;28;20024;-52
2021/11/08 00:10:17;;;;;;;71.15;29.42;;;;;;;7.54;80.06;93632.50;5075711;28;20022;-56
2021/11/08 00:12:43;;;;;;;102.43;33.75;;;;;;;7.51;80.92;93650.03;5069774;28;20040;-53
2021/11/08 00:15:11;;;;;;;94.05;32.85;;;;;;;7.65;80.01;93644.03;5071691;28;20370;-53
2021/11/08 00:20:48;;;;;;;111.22;39.47;;;;;;;7.45;80.39;93643.91;5070639;28;20041;-52
2021/11/08 00:23:08;;;;;;;93.00;39.25;;;;;;;7.29;81.83;93631.91;5067892;28;20055;-57
2021/11/08 00:25:34;;;;;;;78.60;39.30;;;;;;;7.55;80.88;93629.25;5070389;28;20035;-50
2021/11/08 00:28:00;;;;;;;53.42;31.13;;;;;;;7.41;80.78;93629.69;5084034;28;20028;-48
2021/11/08 00:30:27;;;;;;;68.85;30.98;;;;;;;7.50;80.15;93621.81;5080962;28;20086;-49
2021/11/08 00:32:53;;;;;;;106.40;33.47;;;;;;;7.35;80.74;93626.31;5079016;28;20111;-48
2021/11/08 00:35:18;;;;;;;83.45;32.08;;;;;;;7.40;80.17;93623.50;5079460;28;20099;-49
2021/11/08 00:37:44;;;;;;;87.22;33.65;;;;;;;7.52;79.56;93615.78;5078653;28;20024;-55
2021/11/08 00:40:10;;;;;;;61.55;30.63;;;;;;;7.54;79.16;93618.75;5080272;28;20028;-50
2021/11/08 00:42:37;;;;;;;97.15;29.67;;;;;;;7.25;80.02;93620.47;5077293;28;20027;-51
2021/11/08 00:45:03;;;;;;;89.53;31.98;;;;;;;7.20;81.28;93613.06;5079685;28;20117;-51
2021/11/08 00:47:29;;;;;;;89.22;32.65;;;;;;;7.15;81.17;93597.41;5083158;28;20061;-51
2021/11/08 00:49:56;;;;;;;56.33;30.63;;;;;;;7.04;82.40;93608.56;5089949;28;20542;-51
2021/11/08 00:52:22;;;;;;;65.07;30.85;;;;;;;7.20;81.36;93609.56;5088622;28;20070;-51
2021/11/08 00:54:48;;;;;;;48.03;27.83;;;;;;;7.27;80.70;93601.47;5090326;28;20425;-52
2021/11/08 00:57:18;;;;;;;53.30;26.35;;;;;;;7.08;81.00;93603.50;5086952;28;20020;-48
2021/11/08 00:59:44;;;;;;;68.68;28.42;;;;;;;7.07;81.16;93602.03;5071349;28;20029;-49
2021/11/08 01:02:09;;;;;;;123.25;32.25;;;;;;;7.11;80.83;93580.50;5078035;28;20027;-51
2021/11/08 01:04:36;;;;;;;53.72;25.73;;;;;;;6.97;81.97;93594.72;5079781;28;20044;-49
2021/11/08 01:07:02;;;;;;;46.47;28.50;;;;;;;7.10;81.08;93592.03;5087500;28;20032;-48
2021/11/08 01:09:30;;;;;;;40.85;23.42;;;;;;;6.98;81.24;93590.69;5083683;28;20043;-49
2021/11/08 01:11:57;;;;;;;35.50;22.83;;;;;;;6.98;81.35;93590.69;5078446;28;20058;-50
2021/11/08 01:14:23;;;;;;;35.58;23.10;;;;;;;7.10;80.19;93592.03;5073683;28;20121;-47
2021/11/08 01:16:56;;;;;;;38.33;21.45;;;;;;;6.98;78.91;93593.44;5079515;28;20489;-50
2021/11/08 01:19:21;;;;;;;35.00;21.13;;;;;;;6.93;78.95;93584.00;5079041;28;20081;-51
2021/11/08 01:21:47;;;;;;;34.38;22.42;;;;;;;7.06;78.89;93592.31;5079105;28;20020;-49
2021/11/08 01:24:13;;;;;;;29.95;20.67;;;;;;;6.94;78.75;93580.03;5079959;28;20526;-48
2021/11/08 01:26:38;;;;;;;32.65;18.90;;;;;;;7.01;78.44;93587.66;5080387;28;20488;-53
2021/11/08 01:29:05;;;;;;;27.42;18.48;;;;;;;6.87;78.05;93559.41;5079200;28;20562;-56
2021/11/08 01:31:31;;;;;;;35.67;20.17;;;;;;;7.05;77.90;93593.59;5087853;28;20093;-49
2021/11/08 01:33:57;;;;;;;31.05;17.92;;;;;;;7.08;77.84;93589.06;5085555;28;20424;-46
2021/11/08 01:36:25;;;;;;;29.80;18.92;;;;;;;6.78;77.84;93540.59;5079443;28;20022;-47
2021/11/08 01:38:54;;;;;;;37.40;19.20;;;;;;;6.87;77.94;93578.63;5080528;28;20022;-48
2021/11/08 01:41:25;;;;;;;29.42;20.17;;;;;;;6.94;78.00;93569.03;5080744;28;20115;-47
2021/11/08 01:43:51;;;;;;;33.38;20.48;;;;;;;6.87;78.12;93569.63;5081897;28;20111;-48
2021/11/08 01:46:17;;;;;;;33.13;18.58;;;;;;;6.91;78.67;93577.59;5083680;28;20602;-52
2021/11/08 01:48:43;;;;;;;28.75;19.35;;;;;;;6.97;79.31;93570.00;5082043;28;20020;-53
2021/11/08 01:51:09;;;;;;;28.50;18.98;;;;;;;6.87;79.48;93578.63;5082035;28;20027;-52
2021/11/08 01:53:35;;;;;;;28.70;18.48;;;;;;;6.87;80.03;93572.38;5083791;28;20078;-50
2021/11/08 01:56:01;;;;;;;30.42;18.10;;;;;;;6.91;80.08;93570.06;5081868;28;20421;-47
2021/11/08 01:58:29;;;;;;;34.47;19.05;;;;;;;6.99;79.59;93567.47;5082484;28;20027;-50
2021/11/08 02:00:56;;;;;;;30.42;19.05;;;;;;;6.87;79.14;93562.16;5083349;28;20012;-48
2021/11/08 02:03:22;;;;;;;28.58;18.60;;;;;;;6.42;78.26;93533.13;5082107;28;20099;-48
2021/11/08 02:05:47;;;;;;;28.42;17.92;;;;;;;6.41;78.53;93559.81;5082184;28;20396;-51
2021/11/08 02:08:14;;;;;;;31.80;20.73;;;;;;;6.55;78.02;93563.38;5083193;28;20016;-53
2021/11/08 02:10:40;;;;;;;34.63;21.02;;;;;;;6.43;78.20;93562.78;5081488;28;20031;-48
2021/11/08 02:13:06;;;;;;;30.40;20.85;;;;;;;6.34;78.80;93554.19;5079868;28;20244;-50
2021/11/08 02:15:32;;;;;;;39.08;21.27;;;;;;;6.39;78.73;93567.09;5082324;28;20025;-48
2021/11/08 02:17:58;;;;;;;34.38;21.58;;;;;;;6.45;79.27;93565.75;5079764;28;20024;-49
2021/11/08 02:20:27;;;;;;;40.50;20.88;;;;;;;6.25;79.02;93563.53;5082048;28;20553;-51
2021/11/08 02:22:55;;;;;;;48.73;21.77;;;;;;;6.34;78.82;93563.16;5079421;28;20055;-48
2021/11/08 02:25:21;;;;;;;45.10;24.95;;;;;;;6.24;79.85;93553.09;5091645;28;20034;-53
2021/11/08 02:27:48;;;;;;;34.38;21.65;;;;;;;6.30;79.92;93551.00;5092751;28;20028;-48
2021/11/08 02:30:15;;;;;;;35.40;22.33;;;;;;;6.31;80.45;93555.22;5092358;28;20069;-49
2021/11/08 02:32:41;;;;;;;36.03;21.55;;;;;;;6.50;80.76;93544.97;5092664;28;20027;-50
2021/11/08 02:35:09;;;;;;;35.60;21.25;;;;;;;6.45;80.56;93538.34;5092494;28;20573;-53
2021/11/08 02:37:35;;;;;;;48.50;28.15;;;;;;;6.51;80.14;93543.75;5092527;28;20099;-50
2021/11/08 02:40:05;;;;;;;52.17;29.77;;;;;;;6.40;79.99;93517.22;5092151;28;20111;-52
2021/11/08 02:42:30;;;;;;;77.63;41.08;;;;;;;6.69;79.28;93538.22;5078524;28;20055;-50
2021/11/08 02:44:56;;;;;;;39.92;25.33;;;;;;;6.73;78.76;93538.69;5071609;28;20501;-51
2021/11/08 02:47:23;;;;;;;37.15;22.92;;;;;;;6.64;78.46;93530.84;5071917;28;20031;-50
2021/11/08 02:49:50;;;;;;;37.40;21.95;;;;;;;6.50;79.34;93534.00;5071686;28;20020;-52
2021/11/08 02:52:20;;;;;;;35.35;21.55;;;;;;;6.39;79.94;93532.16;5072018;28;20446;-49
2021/11/08 02:54:49;;;;;;;43.03;24.35;;;;;;;6.61;79.44;93536.59;5071817;28;20103;-50
2021/11/08 02:57:14;;;;;;;44.35;25.02;;;;;;;6.28;79.80;93526.84;5071512;28;20414;-52
2021/11/08 02:59:40;;;;;;;48.40;26.13;;;;;;;6.28;79.87;93524.09;5071099;28;20020;-50
2021/11/08 03:02:07;;;;;;;43.45;25.60;;;;;;;6.16;79.44;93524.75;5071392;28;20027;-49
2021/11/08 03:04:38;;;;;;;44.90;24.10;;;;;;;6.32;79.09;93526.56;5071548;28;20033;-50
2021/11/08 03:07:04;;;;;;;39.35;25.65;;;;;;;6.25;79.07;93519.66;5071472;28;20055;-50
2021/11/08 03:09:36;;;;;;;42.10;27.02;;;;;;;6.27;79.05;93519.88;5080477;28;20024;-48
2021/11/08 03:12:10;;;;;;;41.15;25.48;;;;;;;6.41;78.45;93520.69;5083187;28;20082;-51
2021/11/08 03:14:40;;;;;;;50.72;28.42;;;;;;;6.39;78.40;93517.75;5071485;28;20112;-51
2021/11/08 03:17:06;;;;;;;45.63;27.50;;;;;;;6.40;78.61;93508.25;5071553;28;20463;-50
2021/11/08 03:19:33;;;;;;;45.20;25.20;;;;;;;6.35;78.52;93498.81;5069929;28;20020;-52
2021/11/08 03:22:01;;;;;;;47.72;26.08;;;;;;;6.23;79.28;93502.25;5071057;28;20517;-52
2021/11/08 03:24:39;;;;;;;43.05;27.25;;;;;;;6.11;79.47;93496.91;5070999;28;20075;-51
2021/11/08 03:27:20;;;;;;;37.38;24.10;;;;;;;6.20;79.16;93500.53;5071051;28;20024;-47
2021/11/08 03:29:46;;;;;;;38.58;23.02;;;;;;;6.04;79.29;93486.53;5071320;28;20028;-50
2021/11/08 03:32:15;;;;;;;33.15;22.17;;;;;;;6.04;78.93;93488.56;5070885;28;20036;-49
2021/11/08 03:34:47;;;;;;;40.13;21.85;;;;;;;6.02;78.69;93494.53;5070928;28;20154;-50
2021/11/08 03:37:14;;;;;;;34.83;21.65;;;;;;;6.13;78.53;93480.69;5071190;28;20055;-51
2021/11/08 03:39:39;;;;;;;33.67;22.20;;;;;;;6.03;77.71;93473.34;5070251;28;20051;-49
2021/11/08 03:42:05;;;;;;;40.58;22.30;;;;;;;6.02;78.38;93485.59;5079733;28;20476;-50
2021/11/08 03:44:31;;;;;;;41.38;24.25;;;;;;;5.87;79.32;93485.25;5090890;28;20043;-50
2021/11/08 03:46:56;;;;;;;37.65;22.80;;;;;;;5.66;79.63;93449.41;5090946;28;20047;-52
2021/11/08 03:49:22;;;;;;;41.15;22.60;;;;;;;6.01;79.18;93475.88;5091027;28;20102;-54
2021/11/08 03:51:47;;;;;;;33.65;21.60;;;;;;;5.81;79.49;93466.13;5090890;28;20024;-52
2021/11/08 03:54:13;;;;;;;37.58;22.05;;;;;;;5.85;79.40;93480.31;5090696;28;20107;-51
2021/11/08 03:56:39;;;;;;;35.20;22.60;;;;;;;5.71;80.07;93472.50;5090776;28;20026;-51
2021/11/08 03:59:05;;;;;;;34.60;21.52;;;;;;;5.52;79.05;93461.53;5089989;28;20048;-53
2021/11/08 04:01:35;;;;;;;31.45;20.58;;;;;;;5.46;80.44;93471.78;5075976;28;20111;-53
2021/11/08 04:04:05;;;;;;;34.92;21.55;;;;;;;5.37;80.68;93475.59;5070287;28;20020;-55
2021/11/08 04:06:31;;;;;;;32.53;20.77;;;;;;;5.40;81.13;93465.63;5070451;28;20063;-47
2021/11/08 04:08:59;;;;;;;34.10;21.67;;;;;;;5.26;80.49;93444.91;5070531;28;20020;-45
2021/11/08 04:11:27;;;;;;;36.42;24.08;;;;;;;5.36;81.22;93454.97;5073962;28;20008;-45
2021/11/08 04:13:53;;;;;;;35.28;23.50;;;;;;;5.23;81.50;93467.81;5090318;28;20556;-50
2021/11/08 04:16:19;;;;;;;30.10;19.27;;;;;;;5.22;82.45;93456.13;5089394;28;20020;-49
2021/11/08 04:18:51;;;;;;;38.28;20.90;;;;;;;5.25;82.38;93466.03;5090795;28;20435;-48
2021/11/08 04:21:17;;;;;;;26.02;16.65;;;;;;;5.36;82.09;93467.91;5090257;28;20024;-51
2021/11/08 04:23:43;;;;;;;28.58;17.02;;;;;;;5.44;80.92;93471.56;5090447;28;20553;-48
2021/11/08 04:26:11;;;;;;;24.80;15.90;;;;;;;5.49;79.99;93478.97;5090500;28;20031;-47
2021/11/08 04:28:37;;;;;;;31.98;19.00;;;;;;;5.34;80.05;93470.44;5090628;28;20386;-48
2021/11/08 04:31:02;;;;;;;37.45;23.58;;;;;;;5.32;80.59;93483.91;5090547;28;20104;-48
2021/11/08 04:36:32;;;;;;;45.83;28.88;;;;;;;5.35;82.08;93480.84;5090162;28;20099;-47
2021/11/08 04:54:24;;;;;;;40.35;22.60;;;;;;;5.51;80.58;93476.47;5078075;28;20490;-50
2021/11/08 05:31:55;;;;;;;38.15;23.00;;;;;;;5.80;81.60;93507.75;5091324;28;20028;-48
2021/11/08 05:34:20;;;;;;;41.85;26.42;;;;;;;5.97;81.29;93508.31;5093715;28;20032;-47
2021/11/08 05:36:46;;;;;;;34.72;22.77;;;;;;;5.86;79.56;93500.97;5090883;28;20027;-50
2021/11/08 05:39:13;;;;;;;37.22;26.67;;;;;;;6.12;78.95;93503.13;5079831;28;20028;-48
2021/11/08 05:41:40;;;;;;;40.30;25.65;;;;;;;6.35;78.18;93500.81;5091092;28;20024;-48
2021/11/08 05:44:06;;;;;;;38.28;24.85;;;;;;;6.49;77.85;93503.13;5093321;28;20044;-49
2021/11/08 05:46:32;;;;;;;39.78;23.88;;;;;;;6.54;78.04;93498.81;5101309;28;20035;-51
2021/11/08 05:48:58;;;;;;;39.17;26.38;;;;;;;6.27;79.29;93497.19;5093407;28;20077;-48
2021/11/08 05:51:23;;;;;;;43.88;30.38;;;;;;;6.31;79.50;93475.72;5090217;28;20028;-48
2021/11/08 05:53:50;;;;;;;46.30;30.30;;;;;;;6.74;78.89;93499.00;5092989;28;20470;-49
2021/11/08 06:50:22;;;;;;;163.70;87.72;;;;;;;9.45;74.95;93502.91;5083756;28;20531;-59
2021/11/08 06:52:50;;;;;;;156.07;88.18;;;;;;;10.37;71.36;93500.19;5072321;28;20029;-58
2021/11/08 06:55:20;;;;;;;143.63;81.90;;;;;;;10.64;69.77;93488.31;5067971;28;20421;-58
2021/11/08 06:57:47;;;;;;;125.72;73.15;;;;;;;11.03;69.68;93484.31;5068535;28;20687;-61
2021/11/08 07:00:15;;;;;;;111.45;67.82;;;;;;;11.90;67.29;93489.47;5068444;28;20044;-56
2021/11/08 07:02:41;;;;;;;97.43;58.22;;;;;;;12.74;64.56;93490.66;5068403;28;20085;-59
2021/11/08 07:05:07;;;;;;;114.65;65.68;;;;;;;13.38;62.35;93484.38;5068149;28;20432;-55
2021/11/08 07:07:32;;;;;;;100.90;60.97;;;;;;;14.12;59.91;93471.09;5073339;28;20024;-57
2021/11/08 07:09:58;;;;;;;89.60;59.63;;;;;;;14.76;58.84;93475.56;5077664;28;20016;-56
2021/11/08 07:12:23;;;;;;;92.07;55.75;;;;;;;15.37;56.87;93472.66;5075430;28;20081;-58
2021/11/08 07:14:49;;;;;;;70.60;46.72;;;;;;;15.90;56.15;93475.34;5079025;28;20579;-57
2021/11/08 07:17:15;;;;;;;71.63;43.65;;;;;;;16.33;53.87;93467.34;5087676;28;20027;-51
2021/11/08 07:19:41;;;;;;;68.65;45.03;;;;;;;16.31;54.11;93469.97;5087779;28;20027;-57
2021/11/08 07:22:07;;;;;;;64.15;46.45;;;;;;;16.39;55.10;93465.72;5088170;28;20024;-58
2021/11/08 07:24:33;;;;;;;47.70;33.08;;;;;;;17.04;53.68;93459.97;5088430;28;20085;-56
2021/11/08 07:26:59;;;;;;;39.80;29.38;;;;;;;17.59;52.60;93464.47;5087903;28;20107;-57
2021/11/08 07:29:26;;;;;;;67.70;37.13;;;;;;;17.41;53.75;93461.13;5088059;28;20141;-58
2021/11/08 07:31:52;;;;;;;31.10;22.27;;;;;;;18.39;51.10;93457.22;5082098;28;20028;-55
2021/11/08 07:34:18;;;;;;;29.80;19.58;;;;;;;18.71;50.76;93462.16;5078113;28;20093;-50
2021/11/08 07:36:43;;;;;;;31.02;19.05;;;;;;;19.56;49.78;93454.94;5070281;28;20101;-59
2021/11/08 07:39:09;;;;;;;35.40;23.33;;;;;;;20.59;47.31;93452.66;5067733;28;20070;-57
2021/11/08 07:41:35;;;;;;;52.67;32.40;;;;;;;21.66;43.70;93450.13;5067183;28;20111;-56
2021/11/08 07:44:00;;;;;;;62.28;38.80;;;;;;;22.51;42.30;93444.75;5077701;28;20079;-53
2021/11/08 07:46:26;;;;;;;57.80;39.47;;;;;;;23.19;41.23;93449.47;5073989;28;20032;-55
2021/11/08 07:48:52;;;;;;;43.08;29.85;;;;;;;23.89;39.49;93443.53;5066243;28;20490;-51
2021/11/08 07:51:18;;;;;;;33.40;21.98;;;;;;;24.35;37.37;93439.25;5066655;28;20028;-51
2021/11/08 07:53:44;;;;;;;38.92;26.35;;;;;;;24.57;36.79;93440.19;5065530;28;20456;-50
2021/11/08 07:56:11;;;;;;;51.80;39.10;;;;;;;24.84;36.29;93434.28;5068081;28;20025;-50
2021/11/08 07:58:37;;;;;;;59.40;43.88;;;;;;;25.06;36.03;93435.19;5082105;28;20111;-51
2021/11/08 08:01:04;;;;;;;51.30;36.40;;;;;;;25.37;35.97;93437.09;5087270;28;20052;-56
2021/11/08 08:03:29;;;;;;;54.92;37.13;;;;;;;25.97;34.90;93433.03;5087000;28;20504;-60
2021/11/08 08:05:56;;;;;;;36.75;29.90;;;;;;;26.54;34.54;93427.31;5075994;28;20020;-58
2021/11/08 08:08:22;;;;;;;39.22;27.77;;;;;;;27.06;33.20;93431.94;5079585;28;20491;-57
2021/11/08 08:10:51;;;;;;;37.00;25.90;;;;;;;27.54;33.27;93416.50;5076693;28;20076;-59
2021/11/08 08:13:20;;;;;;;51.47;36.33;;;;;;;28.03;31.17;93424.34;5074816;28;20032;-57
2021/11/08 08:15:47;;;;;;;36.88;24.30;;;;;;;28.30;31.13;93423.72;5073583;28;20031;-57
2021/11/08 08:18:13;;;;;;;49.50;35.15;;;;;;;28.83;30.51;93425.13;5068623;28;20241;-57
2021/11/08 08:20:39;;;;;;;34.17;22.63;;;;;;;29.21;30.48;93414.75;5068986;28;20059;-56
2021/11/08 08:23:05;;;;;;;28.20;21.25;;;;;;;29.58;29.58;93410.63;5068979;28;20052;-58
2021/11/08 08:25:30;;;;;;;30.58;21.20;;;;;;;30.13;28.84;93416.13;5068829;28;20032;-57
2021/11/08 08:27:58;;;;;;;33.08;20.50;;;;;;;30.51;27.96;93414.06;5068543;28;20025;-58
2021/11/08 08:30:25;;;;;;;31.80;22.42;;;;;;;30.56;27.40;93421.28;5075875;28;20024;-58
2021/11/08 08:32:52;;;;;;;29.52;20.73;;;;;;;31.04;26.67;93410.06;5095564;28;20156;-58
2021/11/08 08:35:18;;;;;;;29.75;19.58;;;;;;;31.18;26.03;93418.13;5104682;28;20023;-58
2021/11/08 08:37:44;;;;;;;28.17;17.13;;;;;;;31.10;26.58;93395.19;5107892;28;20020;-57
2021/11/08 08:40:09;;;;;;;22.83;15.45;;;;;;;31.53;26.13;93413.72;5108093;28;20648;-61
2021/11/08 08:42:35;;;;;;;22.77;13.02;;;;;;;31.65;24.27;93406.06;5100132;28;20030;-61
2021/11/08 08:45:01;;;;;;;24.70;14.38;;;;;;;31.46;24.61;93417.88;5088795;28;20043;-62
2021/11/08 08:47:27;;;;;;;16.58;11.35;;;;;;;32.04;24.60;93418.75;5089604;28;20026;-60
2021/11/08 08:49:52;;;;;;;15.25;9.48;;;;;;;32.09;22.65;93418.13;5110966;28;20020;-66
2021/11/08 08:52:18;;;;;;;17.08;9.70;;;;;;;32.41;22.66;93423.53;5113510;28;20122;-71
2021/11/08 08:54:44;;;;;;;16.35;9.65;;;;;;;32.73;22.78;93423.19;5106586;28;20759;-70
2021/11/08 08:57:10;;;;;;;14.20;9.15;;;;;;;32.72;22.53;93418.91;5113086;28;20114;-69
2021/11/08 08:59:36;;;;;;;31.90;19.13;;;;;;;32.91;22.87;93423.41;5113470;28;20119;-65
2021/11/08 09:02:02;;;;;;;21.20;11.98;;;;;;;33.20;21.73;93418.69;5101441;28;20028;-62
2021/11/08 09:04:28;;;;;;;19.92;11.13;;;;;;;33.71;21.96;93423.41;5092637;28;20024;-63
2021/11/08 09:06:55;;;;;;;17.27;9.48;;;;;;;33.91;20.85;93425.69;5092778;28;20432;-65
2021/11/08 09:09:21;;;;;;;17.40;8.45;;;;;;;34.18;21.48;93421.56;5101434;28;20020;-61
2021/11/08 09:11:46;;;;;;;14.55;8.98;;;;;;;33.86;20.83;93421.34;5094106;28;20023;-61
2021/11/08 09:14:12;;;;;;;13.25;7.75;;;;;;;33.97;21.91;93417.13;5080716;28;20489;-60
2021/11/08 09:16:38;;;;;;;14.02;7.95;;;;;;;33.81;20.76;93414.19;5072410;28;20416;-61
2021/11/08 09:19:04;;;;;;;14.38;7.93;;;;;;;34.25;20.85;93412.31;5071929;28;20063;-60
2021/11/08 09:21:34;;;;;;;21.45;7.38;;;;;;;33.88;19.90;93416.38;5072351;28;20028;-56
2021/11/08 09:24:01;;;;;;;16.42;8.82;;;;;;;34.40;19.24;93409.50;5072187;28;20024;-59
2021/11/08 09:26:30;;;;;;;16.58;6.80;;;;;;;35.12;19.41;93409.75;5072182;28;20425;-57
2021/11/08 09:28:56;;;;;;;17.35;7.28;;;;;;;35.41;19.15;93388.22;5071935;28;20032;-57
2021/11/08 09:31:22;;;;;;;22.27;7.55;;;;;;;35.44;18.21;93397.56;5071995;28;20082;-58
2021/11/08 09:33:49;;;;;;;13.70;6.55;;;;;;;34.71;18.80;93393.84;5071991;28;20028;-60
2021/11/08 09:36:15;;;;;;;14.40;5.97;;;;;;;35.23;18.90;93388.25;5071569;28;20020;-63
2021/11/08 09:38:55;;;;;;;13.52;6.07;;;;;;;35.27;18.55;93388.25;5083408;28;20085;-65
2021/11/08 09:41:26;;;;;;;10.32;5.55;;;;;;;34.60;19.11;93384.50;5088798;28;20535;-59
2021/11/08 09:43:52;;;;;;;13.20;5.85;;;;;;;34.87;18.44;93385.31;5072554;28;20041;-61
2021/11/08 09:46:18;;;;;;;10.57;5.63;;;;;;;35.31;18.41;93376.03;5071460;28;20230;-57
2021/11/08 09:48:43;;;;;;;15.20;6.93;;;;;;;35.58;17.87;93383.25;5072701;28;20024;-59
2021/11/08 09:51:13;;;;;;;15.70;6.05;;;;;;;35.45;17.72;93381.78;5071431;28;20024;-57
2021/11/08 09:53:39;;;;;;;10.68;4.68;;;;;;;35.54;18.51;93378.19;5076536;28;20034;-56
2021/11/08 09:56:06;;;;;;;11.52;5.47;;;;;;;35.40;17.60;93371.72;5101539;28;20035;-58
2021/11/08 09:58:33;;;;;;;15.75;6.32;;;;;;;35.39;18.38;93378.91;5091679;28;20046;-59
2021/11/08 10:01:00;;;;;;;10.40;6.25;;;;;;;34.42;19.29;93375.09;5090963;28;20680;-58
2021/11/08 10:03:28;;;;;;;11.93;6.05;;;;;;;33.00;20.63;93375.59;5091422;28;20012;-60
2021/11/08 10:05:56;;;;;;;13.85;7.35;;;;;;;31.79;23.18;93383.44;5091324;28;20111;-57
2021/11/08 10:08:27;;;;;;;12.07;5.37;;;;;;;31.35;23.33;93374.19;5091386;28;20023;-57
2021/11/08 10:10:55;;;;;;;10.45;5.50;;;;;;;30.80;23.63;93369.00;5073720;28;20035;-58
2021/11/08 10:13:23;;;;;;;12.68;5.25;;;;;;;30.79;24.23;93378.94;5079459;28;20101;-57
2021/11/08 10:15:53;;;;;;;8.77;5.10;;;;;;;31.25;24.08;93371.88;5080672;28;20059;-57
2021/11/08 10:18:20;;;;;;;12.45;5.07;;;;;;;31.90;22.67;93376.41;5071595;28;20581;-56
2021/11/08 10:20:51;;;;;;;14.98;5.88;;;;;;;32.23;22.68;93377.59;5070421;28;20052;-56
2021/11/08 10:23:24;;;;;;;8.43;5.32;;;;;;;32.50;22.26;93370.06;5069710;28;20025;-56
2021/11/08 10:25:51;;;;;;;13.90;5.38;;;;;;;32.12;22.12;93367.44;5069201;28;20028;-57
2021/11/08 10:28:24;;;;;;;8.05;4.65;;;;;;;32.03;21.95;93360.91;5068867;28;20063;-57
2021/11/08 10:30:57;;;;;;;11.05;5.63;;;;;;;32.49;22.02;93366.47;5076890;28;20016;-62
2021/11/08 10:33:29;;;;;;;8.98;5.18;;;;;;;32.33;22.83;93362.69;5068349;28;20028;-56
2021/11/08 10:35:57;;;;;;;16.20;4.95;;;;;;;32.02;22.11;93364.47;5088597;28;20512;-56
2021/11/08 10:38:29;;;;;;;9.27;4.95;;;;;;;31.40;23.17;93352.88;5089091;28;20047;-56
2021/11/08 10:41:00;;;;;;;12.80;5.68;;;;;;;30.25;23.87;93350.13;5088553;28;20027;-56
2021/11/08 10:43:26;;;;;;;12.48;5.13;;;;;;;28.99;25.65;93349.50;5068330;28;20048;-57
2021/11/08 10:45:54;;;;;;;8.98;5.57;;;;;;;28.37;27.07;93353.59;5068158;28;20036;-59
2021/11/08 10:48:28;;;;;;;10.70;6.28;;;;;;;27.95;28.31;93361.66;5069029;28;20024;-57
2021/11/08 10:50:55;;;;;;;9.50;6.03;;;;;;;28.38;28.65;93358.59;5068856;28;20032;-58
2021/11/08 10:53:22;;;;;;;14.70;6.97;;;;;;;29.23;26.70;93361.50;5068312;28;20024;-57
2021/11/08 10:55:59;;;;;;;9.48;5.40;;;;;;;29.52;26.38;93348.59;5068210;28;20037;-58
2021/11/08 10:58:25;;;;;;;24.95;6.28;;;;;;;30.12;25.66;93351.31;5068498;28;20031;-53
2021/11/08 11:00:57;;;;;;;12.93;6.65;;;;;;;29.89;26.32;93348.00;5094156;28;20027;-56
2021/11/08 11:03:24;;;;;;;9.93;5.97;;;;;;;29.24;25.73;93356.50;5108780;28;20110;-56
2021/11/08 11:06:06;;;;;;;13.00;5.93;;;;;;;29.13;26.73;93346.25;5099689;28;20028;-55
2021/11/08 11:08:33;;;;;;;16.20;8.70;;;;;;;28.12;29.30;93348.66;5096623;28;20093;-56
2021/11/08 11:11:07;;;;;;;18.25;11.07;;;;;;;27.88;30.19;93348.69;5095613;28;20036;-58
2021/11/08 11:13:33;;;;;;;15.88;7.07;;;;;;;27.88;29.85;93347.94;5083361;28;20020;-60
2021/11/08 11:16:02;;;;;;;17.45;7.97;;;;;;;27.79;29.98;93353.41;5092782;28;20027;-67
2021/11/08 11:18:29;;;;;;;;;;;;;;;27.86;31.00;93350.72;5109031;28;20778;-60
2021/11/08 11:20:54;;;;;;;17.15;10.00;;;;;;;27.46;30.88;93358.81;5107996;28;19947;-58
2021/11/08 11:23:27;;;;;;;24.88;10.35;;;;;;;27.49;31.44;93344.00;5099232;27;20545;-60
2021/11/08 11:26:04;;;;;;;24.17;10.43;;;;;;;27.61;30.75;93347.19;5078888;28;20048;-57
2021/11/08 11:28:36;;;;;;;21.45;7.78;;;;;;;27.07;31.71;93263.34;5081030;28;20035;-53
2021/11/08 11:31:20;;;;;;;22.17;9.02;;;;;;;27.71;31.53;93346.78;5098637;28;20040;-47
2021/11/08 11:33:47;;;;;;;33.45;17.17;;;;;;;27.58;31.08;93350.66;5082794;28;20024;-55
2021/11/08 11:36:17;;;;;;;28.80;17.08;;;;;;;27.30;31.15;93349.78;5098066;28;20486;-52
2021/11/08 11:38:48;;;;;;;22.63;12.05;;;;;;;26.99;31.13;93346.00;5086704;28;20102;-54
2021/11/08 11:41:19;;;;;;;23.13;7.18;;;;;;;26.63;32.22;93350.47;5088822;28;20032;-55
2021/11/08 11:44:05;;;;;;;16.13;8.23;;;;;;;27.07;32.95;93341.97;5088668;28;20044;-55
2021/11/08 11:46:37;;;;;;;16.50;7.88;;;;;;;27.49;31.48;93346.13;5083089;28;20028;-53
2021/11/08 11:49:03;;;;;;;19.77;8.43;;;;;;;27.58;31.40;93348.53;5088768;28;20046;-56
2021/11/08 12:03:25;;;;;;;20.08;12.35;;;;;;;26.86;33.14;93337.78;5064321;28;20814;-53
2021/11/08 12:05:55;;;;;;;29.92;15.18;;;;;;;26.54;31.90;93353.69;5064730;28;20052;-54
2021/11/08 12:08:21;;;;;;;25.95;13.90;;;;;;;25.89;34.32;93300.53;5040867;28;20029;-50
2021/11/08 12:10:50;;;;;;;17.23;10.38;;;;;;;25.98;31.72;93341.13;5036135;28;20017;-49
2021/11/08 12:13:23;;;;;;;26.95;12.38;;;;;;;25.74;34.10;93345.94;5057005;28;20029;-60
2021/11/08 12:15:50;;;;;;;21.77;9.55;;;;;;;25.41;33.74;93339.06;5044778;28;20047;-56
2021/11/08 12:18:17;;;;;;;14.48;8.15;;;;;;;25.40;34.52;93339.72;5044024;28;20082;-55
2021/11/08 12:20:52;;;;;;;16.25;8.45;;;;;;;25.28;36.31;93334.34;5064612;28;20025;-49
2021/11/08 12:23:20;;;;;;;17.52;9.02;;;;;;;25.29;38.63;93337.88;5064545;28;20025;-51
2021/11/08 12:25:46;;;;;;;23.80;9.90;;;;;;;24.51;37.74;93225.41;5063985;28;20028;-49
2021/11/08 12:28:26;;;;;;;15.55;7.85;;;;;;;25.23;39.14;93337.66;5054349;28;20025;-55
2021/11/08 12:31:01;;;;;;;18.52;10.02;;;;;;;25.33;40.12;93329.56;5054590;28;20401;-64
2021/11/08 12:33:35;;;;;;;25.42;11.20;;;;;;;25.46;39.38;93337.13;5051938;28;20025;-59
2021/11/08 12:36:10;;;;;;;20.60;10.73;;;;;;;25.44;38.89;93337.06;5053743;28;20017;-56
2021/11/08 12:38:38;;;;;;;31.00;11.95;;;;;;;25.46;39.05;93346.34;5059101;28;20024;-56
2021/11/08 12:41:13;;;;;;;31.95;17.42;;;;;;;25.16;36.69;93348.00;5036954;28;20027;-53
2021/11/08 12:43:43;;;;;;;11.23;7.60;;;;;;;24.33;35.90;93351.69;5053487;28;20025;-55
2021/11/08 12:46:13;;;;;;;11.88;7.30;;;;;;;23.92;37.55;93363.31;5052623;28;20028;-53
2021/11/08 12:48:39;;;;;;;8.30;6.55;;;;;;;23.33;38.36;93369.19;5053493;28;20024;-57
2021/11/08 12:51:06;;;;;;;18.00;8.30;;;;;;;22.69;39.41;93374.59;5054131;28;20018;-49
2021/11/08 12:53:38;;;;;;;13.10;7.65;;;;;;;22.38;39.64;93375.16;5051145;28;20025;-51
2021/11/08 12:56:10;;;;;;;15.68;8.63;;;;;;;21.98;40.83;93364.72;5053460;28;20025;-56
2021/11/08 12:58:42;;;;;;;16.25;8.25;;;;;;;22.15;41.23;93375.44;5052239;28;20526;-57
2021/11/08 13:01:08;;;;;;;15.30;7.40;;;;;;;22.03;41.18;93380.41;5053990;28;20021;-56
2021/11/08 13:03:38;;;;;;;13.52;8.43;;;;;;;21.95;40.66;93382.84;5040571;28;20032;-55
2021/11/08 13:06:05;;;;;;;14.48;8.43;;;;;;;21.79;41.07;93381.97;5038992;28;20502;-52
2021/11/08 13:08:31;;;;;;;14.43;7.32;;;;;;;21.42;41.55;93382.16;5029897;28;20025;-57
2021/11/08 13:11:03;;;;;;;19.05;8.55;;;;;;;21.43;42.42;93394.84;5029072;28;20505;-59
2021/11/08 13:13:29;;;;;;;13.10;7.80;;;;;;;21.54;42.60;93396.13;5021206;28;20029;-48
2021/11/08 13:16:04;;;;;;;16.63;9.73;;;;;;;21.70;41.64;93392.06;5046643;28;20111;-58
2021/11/08 13:18:39;;;;;;;13.07;7.70;;;;;;;21.81;40.44;93382.06;5050127;28;20082;-55
2021/11/08 13:21:05;;;;;;;15.25;8.13;;;;;;;21.92;40.09;93375.63;5049967;28;20033;-58
2021/11/08 13:23:34;;;;;;;19.92;9.15;;;;;;;21.85;41.18;93380.22;5050004;28;20231;-53
2021/11/08 13:25:59;;;;;;;;;;;;;;;21.55;40.84;93384.25;5050723;28;20025;-57
2021/11/08 13:28:27;;;;;;;15.20;8.02;;;;;;;21.41;41.40;93391.94;5049553;28;19923;-50